createdAt,value
2022-12-25T00:02:29.875Z,5.51
2022-12-25T00:05:00.590Z,5.57
2022-12-25T00:07:31.212Z,5.62
2022-12-25T00:10:04.808Z,5.68
2022-12-25T00:12:35.220Z,5.74
2022-12-25T00:15:05.907Z,5.78
2022-12-25T00:17:36.510Z,5.83
2022-12-25T00:20:08.059Z,5.84
2022-12-25T00:22:39.151Z,5.88
2022-12-25T00:25:12.836Z,5.91
2022-12-25T00:27:43.328Z,5.93
2022-12-25T00:30:14.783Z,5.95
2022-12-25T00:32:45.479Z,5.96
2022-12-25T00:35:16.120Z,5.96
2022-12-25T00:37:46.641Z,5.97
2022-12-25T00:40:20.014Z,5.96
2022-12-25T00:42:52.362Z,5.96
2022-12-25T00:45:22.971Z,5.96
2022-12-25T00:47:53.519Z,5.96
2022-12-25T00:50:23.980Z,5.94
2022-12-25T00:52:54.404Z,5.94
2022-12-25T00:55:27.654Z,5.92
2022-12-25T00:57:58.181Z,5.92
2022-12-25T01:00:29.267Z,5.92
2022-12-25T01:03:00.120Z,5.91
2022-12-25T01:05:30.742Z,5.91
2022-12-25T01:08:01.252Z,5.89
2022-12-25T01:10:31.947Z,5.88
2022-12-25T01:13:02.453Z,5.88
2022-12-25T01:15:33.093Z,5.88
2022-12-25T01:18:07.728Z,5.86
2022-12-25T01:20:38.886Z,5.85
2022-12-25T01:23:09.765Z,5.84
2022-12-25T01:25:43.237Z,5.85
2022-12-25T01:28:13.934Z,5.84
2022-12-25T01:30:51.635Z,5.83
2022-12-25T01:33:22.440Z,5.82
2022-12-25T01:35:55.944Z,5.79
2022-12-25T01:38:26.556Z,5.79
2022-12-25T01:40:59.845Z,5.79
2022-12-25T01:43:33.255Z,5.78
2022-12-25T01:46:04.858Z,5.77
2022-12-25T01:48:39.936Z,5.75
2022-12-25T01:51:18.548Z,5.74
2022-12-25T01:53:49.022Z,5.73
2022-12-25T01:56:22.603Z,5.69
2022-12-25T01:58:53.142Z,5.71
2022-12-25T02:01:23.882Z,5.70
2022-12-25T02:03:58.096Z,5.71
2022-12-25T02:06:30.979Z,5.70
2022-12-25T02:09:02.293Z,5.68
2022-12-25T02:11:47.995Z,5.59
2022-12-25T02:14:18.626Z,5.67
2022-12-25T02:16:57.475Z,5.68
2022-12-25T02:19:54.704Z,5.70
2022-12-25T02:22:35.020Z,5.72
2022-12-25T02:25:18.404Z,5.73
2022-12-25T02:28:15.987Z,5.75
2022-12-25T02:30:50.747Z,5.76
2022-12-25T02:33:43.201Z,5.79
2022-12-25T02:36:17.059Z,5.80
2022-12-25T02:39:01.828Z,5.82
2022-12-25T02:41:38.632Z,5.84
2022-12-25T02:44:30.839Z,5.82
2022-12-25T02:47:14.056Z,5.85
2022-12-25T02:50:00.029Z,5.87
2022-12-25T02:52:43.379Z,5.88
2022-12-25T02:55:30.590Z,5.82
2022-12-25T02:58:18.383Z,5.91
2022-12-25T03:01:10.788Z,5.94
2022-12-25T03:03:56.471Z,5.93
2022-12-25T03:06:42.141Z,5.94
2022-12-25T03:09:28.020Z,5.94
2022-12-25T03:12:00.147Z,5.94
2022-12-25T03:14:43.352Z,5.94
2022-12-25T03:17:16.723Z,5.95
2022-12-25T03:19:59.609Z,5.96
2022-12-25T03:22:45.669Z,5.97
2022-12-25T03:25:32.028Z,5.96
2022-12-25T03:28:03.224Z,5.99
2022-12-25T03:30:57.169Z,6.01
2022-12-25T03:33:48.674Z,6.01
2022-12-25T03:36:25.816Z,6.01
2022-12-25T03:39:18.449Z,6.00
2022-12-25T03:42:05.347Z,5.99
2022-12-25T03:44:56.593Z,5.98
2022-12-25T03:47:50.523Z,5.98
2022-12-25T03:50:41.119Z,5.97
2022-12-25T03:53:30.145Z,5.94
2022-12-25T03:56:14.535Z,5.92
2022-12-25T03:59:06.604Z,5.88
2022-12-25T04:01:49.478Z,5.88
2022-12-25T04:04:32.265Z,5.86
2022-12-25T04:07:17.608Z,5.84
2022-12-25T04:10:00.349Z,5.81
2022-12-25T04:12:43.451Z,5.80
2022-12-25T04:15:26.702Z,5.76
2022-12-25T04:18:09.655Z,5.74
2022-12-25T04:20:52.432Z,5.71
2022-12-25T04:23:38.011Z,5.68
2022-12-25T04:26:20.908Z,5.65
2022-12-25T04:29:03.799Z,5.63
2022-12-25T04:31:46.584Z,5.61
2022-12-25T04:34:29.559Z,5.59
2022-12-25T04:37:00.048Z,5.57
2022-12-25T04:39:33.300Z,5.55
2022-12-25T04:42:03.884Z,5.56
2022-12-25T04:44:34.476Z,5.56
2022-12-25T04:47:10.998Z,5.54
2022-12-25T04:49:42.357Z,5.51
2022-12-25T04:52:13.632Z,5.54
2022-12-25T04:54:46.861Z,5.54
2022-12-25T04:57:17.373Z,5.53
2022-12-25T04:59:47.977Z,5.53
2022-12-25T05:02:18.675Z,5.52
2022-12-25T05:04:50.339Z,5.51
2022-12-25T05:07:20.822Z,5.52
2022-12-25T05:09:54.045Z,5.50
2022-12-25T05:12:24.561Z,5.50
2022-12-25T05:14:55.404Z,5.50
2022-12-25T05:17:25.870Z,5.48
2022-12-25T05:19:56.436Z,5.48
2022-12-25T05:22:26.935Z,5.44
2022-12-25T05:25:00.231Z,5.47
2022-12-25T05:27:30.660Z,5.44
2022-12-25T05:30:01.180Z,5.43
2022-12-25T05:32:31.715Z,5.42
2022-12-25T05:35:02.680Z,5.42
2022-12-25T05:37:33.424Z,5.40
2022-12-25T05:40:07.939Z,5.39
2022-12-25T05:42:38.695Z,5.38
2022-12-25T05:45:10.808Z,5.35
2022-12-25T05:47:41.266Z,5.36
2022-12-25T05:50:14.099Z,5.35
2022-12-25T05:52:44.685Z,5.33
2022-12-25T05:55:17.999Z,5.36
2022-12-25T05:57:48.716Z,5.38
2022-12-25T06:00:20.036Z,5.38
2022-12-25T06:02:50.642Z,5.39
2022-12-25T06:05:21.257Z,5.38
2022-12-25T06:07:51.882Z,5.38
2022-12-25T06:10:25.282Z,5.33
2022-12-25T06:12:55.826Z,5.33
2022-12-25T06:15:26.624Z,5.32
2022-12-25T06:17:57.046Z,5.32
2022-12-25T06:20:27.631Z,5.33
2022-12-25T06:22:58.080Z,5.32
2022-12-25T06:25:31.387Z,5.27
2022-12-25T06:28:01.916Z,5.28
2022-12-25T06:30:32.462Z,5.30
2022-12-25T06:33:03.117Z,5.26
2022-12-25T06:35:33.691Z,5.26
2022-12-25T06:38:04.165Z,5.24
2022-12-25T06:40:37.521Z,5.26
2022-12-25T06:43:08.030Z,5.26
2022-12-25T06:45:39.100Z,5.28
2022-12-25T06:48:09.777Z,5.29
2022-12-25T06:50:45.198Z,5.30
2022-12-25T06:53:15.794Z,5.30
2022-12-25T06:55:49.082Z,5.31
2022-12-25T06:58:19.598Z,5.32
2022-12-25T07:00:50.272Z,5.33
2022-12-25T07:03:24.949Z,5.37
2022-12-25T07:05:55.518Z,5.34
2022-12-25T07:08:26.070Z,5.42
2022-12-25T07:10:59.252Z,5.46
2022-12-25T07:13:29.760Z,5.52
2022-12-25T07:16:00.642Z,5.56
2022-12-25T07:18:31.645Z,5.62
2022-12-25T07:21:02.519Z,5.68
2022-12-25T07:23:32.993Z,5.75
2022-12-25T07:26:06.423Z,5.81
2022-12-25T07:28:37.146Z,5.91
2022-12-25T07:31:09.575Z,5.96
2022-12-25T07:33:40.442Z,6.09
2022-12-25T07:36:12.838Z,6.23
2022-12-25T07:38:43.973Z,6.40
2022-12-25T07:41:17.160Z,6.56
2022-12-25T07:43:47.676Z,6.73
2022-12-25T07:46:18.362Z,6.87
2022-12-25T07:48:48.897Z,7.03
2022-12-25T07:51:19.615Z,7.19
2022-12-25T07:53:50.198Z,7.34
2022-12-25T07:56:23.876Z,7.48
2022-12-25T07:58:54.317Z,7.57
2022-12-25T08:01:27.117Z,7.66
2022-12-25T08:03:58.917Z,7.74
2022-12-25T08:06:34.368Z,7.79
2022-12-25T08:09:07.497Z,7.82
2022-12-25T08:11:41.672Z,7.87
2022-12-25T08:14:12.578Z,7.88
2022-12-25T08:16:43.434Z,7.90
2022-12-25T08:19:14.757Z,7.89
2022-12-25T08:21:45.371Z,7.90
2022-12-25T08:24:15.781Z,7.91
2022-12-25T08:26:48.906Z,7.93
2022-12-25T08:29:19.483Z,7.92
2022-12-25T08:31:49.952Z,7.91
2022-12-25T08:34:20.384Z,7.93
2022-12-25T08:36:51.206Z,7.93
2022-12-25T08:39:21.664Z,7.93
2022-12-25T08:41:54.889Z,7.94
2022-12-25T08:44:25.456Z,7.93
2022-12-25T08:46:56.476Z,7.94
2022-12-25T08:49:29.210Z,7.96
2022-12-25T08:51:59.897Z,7.95
2022-12-25T08:54:32.700Z,7.93
2022-12-25T08:57:05.972Z,7.95
2022-12-25T08:59:36.535Z,7.97
2022-12-25T09:02:07.932Z,7.97
2022-12-25T09:04:38.557Z,7.95
2022-12-25T09:07:09.215Z,7.98
2022-12-25T09:09:40.143Z,7.97
2022-12-25T09:12:13.492Z,8.02
2022-12-25T09:14:44.900Z,8.04
2022-12-25T09:17:15.686Z,8.06
2022-12-25T09:19:46.158Z,8.09
2022-12-25T09:22:16.697Z,8.13
2022-12-25T09:24:47.215Z,8.19
2022-12-25T09:27:20.502Z,8.25
2022-12-25T09:29:51.058Z,8.34
2022-12-25T09:32:21.768Z,8.40
2022-12-25T09:34:53.972Z,8.47
2022-12-25T09:37:24.812Z,8.55
2022-12-25T09:39:55.279Z,8.61
2022-12-25T09:42:31.513Z,8.70
2022-12-25T09:45:05.929Z,8.78
2022-12-25T09:47:39.996Z,8.85
2022-12-25T09:50:14.863Z,8.94
2022-12-25T09:52:49.481Z,9.05
2022-12-25T09:55:22.922Z,9.12
2022-12-25T09:57:58.987Z,9.20
2022-12-25T10:00:36.752Z,9.28
2022-12-25T10:03:20.366Z,9.36
2022-12-25T10:06:19.394Z,9.45
2022-12-25T10:09:19.538Z,9.50
2022-12-25T10:12:12.044Z,9.60
2022-12-25T10:15:01.595Z,9.64
2022-12-25T10:17:46.890Z,9.71
2022-12-25T10:20:25.172Z,9.76
2022-12-25T10:23:00.420Z,9.79
2022-12-25T10:25:31.026Z,9.87
2022-12-25T10:28:05.926Z,9.94
2022-12-25T10:30:39.610Z,9.99
2022-12-25T10:33:16.649Z,10.07
2022-12-25T10:35:48.433Z,10.18
2022-12-25T10:38:21.461Z,10.34
2022-12-25T10:41:10.045Z,10.50
2022-12-25T10:43:45.828Z,10.69
2022-12-25T10:46:19.806Z,10.86
2022-12-25T10:48:53.206Z,11.01
2022-12-25T10:51:35.192Z,11.12
2022-12-25T10:54:08.989Z,11.21
2022-12-25T10:56:39.717Z,11.29
2022-12-25T10:59:14.070Z,11.38
2022-12-25T11:01:51.006Z,11.49
2022-12-25T11:04:28.776Z,11.57
2022-12-25T11:07:02.296Z,11.64
2022-12-25T11:09:32.811Z,11.68
2022-12-25T11:12:04.011Z,11.72
2022-12-25T11:14:34.723Z,11.74
2022-12-25T11:17:13.487Z,11.72
2022-12-25T11:19:55.404Z,11.71
2022-12-25T11:22:26.307Z,11.74
2022-12-25T11:24:56.948Z,11.73
2022-12-25T11:27:30.781Z,11.72
2022-12-25T11:30:03.517Z,11.76
2022-12-25T11:32:48.779Z,11.81
2022-12-25T11:35:21.633Z,11.86
2022-12-25T11:37:53.838Z,11.84
2022-12-25T11:40:28.389Z,11.95
2022-12-25T11:43:08.199Z,11.98
2022-12-25T11:45:41.754Z,12.01
2022-12-25T11:48:21.069Z,12.06
2022-12-25T11:50:55.026Z,12.09
2022-12-25T11:53:31.842Z,12.11
2022-12-25T11:56:09.439Z,12.15
2022-12-25T11:58:44.982Z,12.16
2022-12-25T12:01:21.858Z,12.14
2022-12-25T12:03:55.706Z,12.14
2022-12-25T12:06:31.617Z,12.20
2022-12-25T12:09:09.146Z,12.26
2022-12-25T12:11:45.964Z,12.34
2022-12-25T12:14:30.343Z,12.41
2022-12-25T12:17:01.066Z,12.48
2022-12-25T12:19:35.710Z,12.50
2022-12-25T12:22:08.113Z,12.42
2022-12-25T12:24:42.196Z,12.36
2022-12-25T12:27:25.609Z,12.27
2022-12-25T12:29:58.705Z,12.20
2022-12-25T12:32:38.939Z,12.12
2022-12-25T12:35:19.382Z,12.03
2022-12-25T12:37:54.503Z,11.93
2022-12-25T12:40:32.677Z,11.82
2022-12-25T12:43:04.107Z,11.74
2022-12-25T12:45:37.814Z,11.72
2022-12-25T12:48:18.316Z,11.66
2022-12-25T12:50:51.737Z,11.59
2022-12-25T12:53:35.131Z,11.51
2022-12-25T12:56:21.056Z,11.40
2022-12-25T12:58:53.340Z,11.31
2022-12-25T13:01:40.956Z,11.25
2022-12-25T13:04:37.530Z,11.13
2022-12-25T13:07:18.740Z,11.02
2022-12-25T13:10:05.363Z,10.95
2022-12-25T13:12:36.088Z,10.86
2022-12-25T13:15:07.389Z,10.79
2022-12-25T13:17:38.571Z,10.72
2022-12-25T13:20:19.941Z,10.65
2022-12-25T13:22:53.394Z,10.59
2022-12-25T13:25:26.883Z,10.54
2022-12-25T13:28:01.025Z,10.51
2022-12-25T13:30:31.842Z,10.49
2022-12-25T13:33:02.432Z,10.42
2022-12-25T13:35:32.997Z,9.83
2022-12-25T13:38:06.271Z,9.23
2022-12-25T13:40:37.603Z,8.57
2022-12-25T13:43:05.811Z,8.28
2022-12-25T13:45:36.871Z,8.18
2022-12-25T13:48:17.505Z,8.11
2022-12-25T13:50:48.918Z,8.22
2022-12-25T13:53:22.158Z,8.23
2022-12-25T13:55:55.100Z,8.10
2022-12-25T13:58:29.619Z,8.17
2022-12-25T14:01:01.364Z,8.23
2022-12-25T14:03:38.655Z,8.11
2022-12-25T14:06:19.393Z,8.13
2022-12-25T14:08:52.975Z,8.14
2022-12-25T14:11:26.409Z,7.97
2022-12-25T14:14:01.551Z,7.71
2022-12-25T14:16:32.566Z,7.56
2022-12-25T14:19:05.145Z,7.62
2022-12-25T14:21:38.638Z,7.60
2022-12-25T14:24:18.361Z,7.41
2022-12-25T14:26:48.960Z,7.40
2022-12-25T14:29:28.039Z,7.45
2022-12-25T14:32:01.231Z,7.31
2022-12-25T14:34:33.681Z,7.13
2022-12-25T14:37:06.463Z,7.09
2022-12-25T14:39:41.474Z,7.10
2022-12-25T14:42:22.634Z,6.92
2022-12-25T14:45:06.616Z,6.63
2022-12-25T14:47:52.657Z,6.60
2022-12-25T14:50:31.213Z,6.57
2022-12-25T14:53:02.727Z,6.42
2022-12-25T14:55:35.973Z,6.21
2022-12-25T14:58:09.893Z,6.20
2022-12-25T15:00:42.731Z,6.20
2022-12-25T15:03:26.480Z,6.05
2022-12-25T15:06:05.826Z,5.93
2022-12-25T15:08:38.224Z,5.97
2022-12-25T15:11:12.400Z,5.87
2022-12-25T15:13:43.407Z,5.72
2022-12-25T15:16:18.308Z,5.55
2022-12-25T15:18:51.774Z,5.58
2022-12-25T15:21:28.845Z,5.57
2022-12-25T15:24:01.331Z,5.24
2022-12-25T15:26:35.761Z,4.65
2022-12-25T15:29:06.928Z,4.13
2022-12-25T15:31:39.921Z,3.75
2022-12-25T15:34:23.898Z,3.44
2022-12-25T15:36:54.965Z,3.24
2022-12-25T15:39:25.500Z,3.10
2022-12-25T15:42:10.861Z,3.03
2022-12-25T15:44:41.486Z,3.04
2022-12-25T15:47:13.284Z,3.13
2022-12-25T15:49:44.364Z,3.26
2022-12-25T15:52:16.935Z,3.31
2022-12-25T15:54:47.408Z,3.31
2022-12-25T15:57:23.866Z,3.17
2022-12-25T15:59:54.441Z,2.97
2022-12-25T16:02:25.242Z,2.84
2022-12-25T16:04:55.998Z,2.73
2022-12-25T16:07:27.965Z,2.73
2022-12-25T16:09:58.511Z,2.66
2022-12-25T16:12:31.761Z,2.53
2022-12-25T16:15:02.412Z,2.38
2022-12-25T16:17:33.969Z,2.19
2022-12-25T16:20:04.613Z,2.05
2022-12-25T16:22:40.221Z,1.90
2022-12-25T16:25:17.412Z,1.91
2022-12-25T16:27:50.874Z,1.93
2022-12-25T16:30:22.286Z,2.01
2022-12-25T16:32:54.330Z,2.16
2022-12-25T16:35:25.011Z,2.26
2022-12-25T16:37:55.556Z,2.36
2022-12-25T16:40:26.337Z,2.43
2022-12-25T16:43:00.115Z,2.47
2022-12-25T16:45:31.012Z,2.44
2022-12-25T16:48:01.486Z,2.28
2022-12-25T16:50:31.935Z,2.10
2022-12-25T16:53:03.207Z,1.91
2022-12-25T16:55:34.451Z,1.75
2022-12-25T16:58:08.580Z,1.83
2022-12-25T17:00:41.171Z,1.89
2022-12-25T17:03:14.792Z,2.11
2022-12-25T17:05:45.452Z,2.30
2022-12-25T17:08:15.997Z,2.49
2022-12-25T17:10:46.884Z,2.67
2022-12-25T17:13:20.225Z,2.87
2022-12-25T17:15:51.038Z,3.03
2022-12-25T17:18:22.285Z,3.18
2022-12-25T17:20:54.362Z,3.32
2022-12-25T17:23:24.950Z,3.44
2022-12-25T17:25:55.550Z,3.55
2022-12-25T17:28:29.001Z,3.65
2022-12-25T17:31:05.480Z,3.75
2022-12-25T17:33:38.814Z,3.80
2022-12-25T17:36:11.934Z,3.86
2022-12-25T17:38:42.522Z,3.91
2022-12-25T17:41:16.219Z,3.97
2022-12-25T17:43:49.638Z,3.98
2022-12-25T17:46:21.623Z,3.99
2022-12-25T17:48:52.918Z,4.00
2022-12-25T17:51:24.913Z,4.00
2022-12-25T17:53:57.326Z,4.00
2022-12-25T17:56:28.673Z,4.00
2022-12-25T17:59:06.820Z,3.91
2022-12-25T18:01:40.517Z,3.44
2022-12-25T18:04:11.191Z,2.81
2022-12-25T18:06:41.862Z,2.09
2022-12-25T18:09:12.827Z,1.51
2022-12-25T18:11:45.276Z,1.03
2022-12-25T18:14:20.165Z,0.63
2022-12-25T18:16:51.681Z,0.33
2022-12-25T18:19:22.380Z,0.27
2022-12-25T18:21:53.883Z,0.35
2022-12-25T18:24:24.414Z,0.50
2022-12-25T18:26:54.935Z,0.67
2022-12-25T18:29:28.396Z,0.90
2022-12-25T18:31:58.978Z,1.11
2022-12-25T18:34:29.549Z,1.36
2022-12-25T18:37:03.217Z,1.57
2022-12-25T18:39:34.981Z,1.67
2022-12-25T18:42:17.773Z,1.61
2022-12-25T18:44:50.923Z,1.70
2022-12-25T18:47:21.853Z,1.72
2022-12-25T18:49:53.145Z,1.63
2022-12-25T18:52:49.610Z,1.53
2022-12-25T18:55:14.276Z,1.38
2022-12-25T18:57:44.753Z,1.22
2022-12-25T19:00:18.447Z,1.04
2022-12-25T19:02:49.255Z,1.01
2022-12-25T19:05:20.354Z,1.06
2022-12-25T19:07:50.917Z,1.05
2022-12-25T19:10:21.781Z,0.98
2022-12-25T19:12:52.397Z,0.91
2022-12-25T19:15:25.599Z,0.87
2022-12-25T19:17:56.828Z,0.97
2022-12-25T19:20:27.349Z,1.06
2022-12-25T19:22:57.865Z,1.04
2022-12-25T19:25:29.738Z,0.98
2022-12-25T19:28:01.632Z,0.91
2022-12-25T19:30:35.224Z,0.85
2022-12-25T19:33:09.022Z,0.80
2022-12-25T19:35:42.654Z,0.87
2022-12-25T19:38:14.752Z,1.01
2022-12-25T19:41:00.810Z,1.03
2022-12-25T19:43:32.731Z,1.01
2022-12-25T19:46:08.108Z,0.94
2022-12-25T19:48:39.589Z,0.90
2022-12-25T19:51:18.941Z,0.87
2022-12-25T19:53:50.242Z,0.80
2022-12-25T19:56:21.268Z,0.76
2022-12-25T19:58:52.129Z,0.71
2022-12-25T20:01:29.295Z,0.75
2022-12-25T20:04:00.338Z,0.78
2022-12-25T20:06:33.570Z,0.72
2022-12-25T20:09:07.655Z,0.60
2022-12-25T20:11:39.966Z,0.51
2022-12-25T20:14:11.508Z,0.48
2022-12-25T20:16:45.141Z,0.63
2022-12-25T20:19:16.904Z,0.76
2022-12-25T20:21:47.495Z,0.74
2022-12-25T20:24:18.070Z,0.64
2022-12-25T20:26:51.438Z,0.56
2022-12-25T20:29:24.589Z,0.48
2022-12-25T20:31:59.842Z,0.36
2022-12-25T20:34:30.492Z,0.35
2022-12-25T20:37:00.967Z,0.29
2022-12-25T20:39:31.680Z,0.25
2022-12-25T20:42:02.291Z,0.02
2022-12-25T20:44:32.930Z,0.13
2022-12-25T20:47:06.137Z,0.11
2022-12-25T20:49:36.924Z,0.22
2022-12-25T20:52:07.972Z,0.34
2022-12-25T20:54:38.585Z,0.33
2022-12-25T20:57:09.320Z,0.30
2022-12-25T20:59:40.465Z,0.31
2022-12-25T21:02:33.915Z,0.29
2022-12-25T21:05:07.149Z,0.23
2022-12-25T21:07:37.772Z,0.21
2022-12-25T21:10:09.884Z,0.17
2022-12-25T21:12:40.317Z,0.30
2022-12-25T21:15:15.448Z,0.27
2022-12-25T21:17:49.097Z,0.20
2022-12-25T21:20:19.816Z,0.11
2022-12-25T21:22:50.392Z,0.06
2022-12-25T21:25:21.029Z,0.06
2022-12-25T21:27:51.534Z,0.07
2022-12-25T21:30:22.061Z,0.10
2022-12-25T21:33:07.623Z,0.11
2022-12-25T21:35:39.784Z,0.11
2022-12-25T21:38:10.493Z,0.01
2022-12-25T21:40:42.006Z,-0.07
2022-12-25T21:43:14.864Z,-0.12
2022-12-25T21:45:45.504Z,-0.16
2022-12-25T21:48:18.699Z,-0.20
2022-12-25T21:51:01.479Z,-0.23
2022-12-25T21:53:31.982Z,-0.24
2022-12-25T21:56:04.853Z,-0.29
2022-12-25T21:58:35.657Z,-0.29
2022-12-25T22:01:06.534Z,-0.21
2022-12-25T22:03:39.763Z,-0.05
2022-12-25T22:06:22.861Z,0.01
2022-12-25T22:08:53.389Z,-0.02
2022-12-25T22:11:36.444Z,-0.11
2022-12-25T22:14:52.288Z,-0.28
2022-12-25T22:17:28.729Z,-0.24
2022-12-25T22:20:02.895Z,-0.26
2022-12-25T22:22:34.880Z,-0.31
2022-12-25T22:25:06.648Z,-0.35
2022-12-25T22:27:40.740Z,-0.41
2022-12-25T22:30:14.038Z,-0.49
2022-12-25T22:32:45.156Z,-0.58
2022-12-25T22:35:19.299Z,-0.69
2022-12-25T22:37:50.151Z,-0.77
2022-12-25T22:40:22.817Z,-0.84
2022-12-25T22:42:56.897Z,-0.84
2022-12-25T22:45:27.581Z,-0.74
2022-12-25T22:47:58.150Z,-0.68
2022-12-25T22:50:31.363Z,-0.66
2022-12-25T22:53:01.863Z,-0.70
2022-12-25T22:55:33.025Z,-0.75
2022-12-25T22:58:03.394Z,-0.72
2022-12-25T23:00:34.168Z,-0.77
2022-12-25T23:03:04.794Z,-0.77
2022-12-25T23:05:38.088Z,-0.69
2022-12-25T23:08:08.697Z,-0.61
2022-12-25T23:10:39.261Z,-0.53
2022-12-25T23:13:22.008Z,-0.45
2022-12-25T23:15:52.622Z,-0.37
2022-12-25T23:18:35.462Z,-0.32
2022-12-25T23:21:21.062Z,-0.28
2022-12-25T23:24:03.909Z,-0.20
2022-12-25T23:26:34.473Z,-0.16
2022-12-25T23:29:17.264Z,-0.13
2022-12-25T23:31:53.864Z,-0.09
2022-12-25T23:34:24.776Z,-0.06
2022-12-25T23:36:58.236Z,-0.04
2022-12-25T23:39:28.777Z,-0.02
2022-12-25T23:41:59.273Z,0.04
2022-12-25T23:44:30.407Z,0.07
2022-12-25T23:47:01.537Z,0.10
2022-12-25T23:49:32.269Z,0.11
2022-12-25T23:52:05.396Z,0.12
2022-12-25T23:54:36.541Z,0.13
2022-12-25T23:57:07.319Z,0.13
2022-12-25T23:59:37.842Z,0.13
